createdAt,value
2019-05-20T00:00:15.308Z,414.80
2019-05-20T00:01:15.311Z,415.00
2019-05-20T00:02:23.546Z,415.17
2019-05-20T00:03:16.274Z,414.67
2019-05-20T00:04:15.265Z,414.68
2019-05-20T00:05:15.262Z,414.99
2019-05-20T00:06:15.240Z,415.11
2019-05-20T00:07:15.236Z,414.70
2019-05-20T00:08:15.233Z,415.04
2019-05-20T00:09:15.260Z,414.62
2019-05-20T00:10:15.193Z,415.12
2019-05-20T00:11:15.186Z,414.80
2019-05-20T00:12:15.170Z,414.88
2019-05-20T00:13:15.162Z,414.62
2019-05-20T00:14:15.178Z,414.91
2019-05-20T00:15:15.192Z,414.94
2019-05-20T00:16:15.131Z,414.80
2019-05-20T00:17:15.119Z,414.96
2019-05-20T00:18:15.115Z,414.67
2019-05-20T00:19:15.119Z,414.94
2019-05-20T00:20:15.084Z,415.13
2019-05-20T00:21:15.072Z,414.95
2019-05-20T00:22:15.059Z,415.16
2019-05-20T00:23:15.051Z,415.17
2019-05-20T00:24:15.043Z,415.04
2019-05-20T00:25:15.049Z,415.01
2019-05-20T00:26:15.067Z,414.71
2019-05-20T00:27:15.007Z,414.81
2019-05-20T00:28:15.014Z,414.93
2019-05-20T00:29:14.985Z,415.24
2019-05-20T00:30:14.977Z,415.15
2019-05-20T00:31:14.963Z,415.14
2019-05-20T00:32:14.961Z,415.33
2019-05-20T00:33:14.940Z,415.03
2019-05-20T00:34:14.940Z,414.79
2019-05-20T00:35:15.088Z,414.97
2019-05-20T00:36:14.908Z,414.58
2019-05-20T00:37:14.906Z,415.43
2019-05-20T00:38:14.889Z,415.23
2019-05-20T00:39:14.874Z,415.01
2019-05-20T00:40:14.862Z,414.80
2019-05-20T00:41:14.862Z,414.54
2019-05-20T00:42:14.835Z,414.83
2019-05-20T00:43:14.825Z,414.98
2019-05-20T00:44:14.816Z,414.80
2019-05-20T00:45:14.829Z,415.01
2019-05-20T00:46:14.794Z,415.15
2019-05-20T00:47:14.790Z,414.93
2019-05-20T00:48:14.779Z,415.36
2019-05-20T00:49:14.765Z,415.13
2019-05-20T00:50:14.767Z,414.94
2019-05-20T00:51:14.755Z,415.08
2019-05-20T00:52:14.739Z,415.05
2019-05-20T00:53:14.734Z,414.84
2019-05-20T00:54:14.707Z,415.09
2019-05-20T00:55:14.693Z,414.92
2019-05-20T00:56:14.731Z,414.98
2019-05-20T00:57:14.667Z,414.81
2019-05-20T00:58:14.674Z,415.03
2019-05-20T00:59:14.642Z,415.24
2019-05-20T01:00:14.639Z,415.16
2019-05-20T01:01:14.625Z,414.86
2019-05-20T01:02:14.653Z,414.57
2019-05-20T01:03:14.605Z,415.06
2019-05-20T01:04:14.601Z,415.10
2019-05-20T01:05:14.583Z,414.77
2019-05-20T01:06:14.573Z,415.10
2019-05-20T01:07:14.560Z,415.00
2019-05-20T01:08:14.543Z,415.00
2019-05-20T01:09:14.544Z,415.21
2019-05-20T01:10:14.527Z,414.68
2019-05-20T01:11:14.513Z,414.84
2019-05-20T01:12:14.507Z,415.24
2019-05-20T01:13:14.502Z,414.68
2019-05-20T01:14:14.487Z,415.00
2019-05-20T01:15:14.474Z,415.09
2019-05-20T01:16:14.457Z,415.11
2019-05-20T01:17:14.446Z,414.92
2019-05-20T01:18:14.432Z,414.87
2019-05-20T01:19:14.426Z,414.62
2019-05-20T01:20:14.417Z,414.99
2019-05-20T01:21:14.407Z,414.81
2019-05-20T01:22:14.390Z,414.86
2019-05-20T01:23:14.383Z,414.48
2019-05-20T01:24:14.383Z,415.15
2019-05-20T01:25:14.360Z,414.62
2019-05-20T01:26:14.362Z,414.52
2019-05-20T01:27:14.333Z,414.98
2019-05-20T01:28:14.327Z,415.07
2019-05-20T01:29:14.312Z,414.77
2019-05-20T01:30:15.246Z,415.65
2019-05-20T01:31:14.308Z,414.88
2019-05-20T01:32:14.284Z,414.97
2019-05-20T01:33:14.544Z,415.09
2019-05-20T01:34:14.261Z,414.89
2019-05-20T01:35:14.252Z,415.41
2019-05-20T01:36:14.272Z,415.22
2019-05-20T01:37:14.243Z,415.08
2019-05-20T01:38:14.236Z,414.90
2019-05-20T01:39:14.207Z,414.88
2019-05-20T01:40:14.194Z,414.96
2019-05-20T01:41:14.176Z,414.93
2019-05-20T01:42:14.186Z,414.71
2019-05-20T01:43:14.171Z,414.90
2019-05-20T01:44:14.142Z,415.11
2019-05-20T01:45:14.134Z,415.17
2019-05-20T01:46:14.120Z,415.38
2019-05-20T01:47:14.116Z,414.87
2019-05-20T01:48:14.096Z,414.68
2019-05-20T01:49:14.107Z,414.65
2019-05-20T01:50:14.075Z,415.37
2019-05-20T01:51:14.070Z,414.97
2019-05-20T01:52:14.066Z,415.08
2019-05-20T01:53:14.061Z,415.26
2019-05-20T01:54:14.044Z,414.63
2019-05-20T01:55:14.053Z,415.24
2019-05-20T01:56:14.015Z,414.77
2019-05-20T01:57:14.011Z,415.09
2019-05-20T01:58:13.998Z,414.80
2019-05-20T01:59:13.993Z,414.15
2019-05-20T02:00:13.984Z,415.02
2019-05-20T02:01:13.959Z,414.90
2019-05-20T02:02:13.945Z,415.27
2019-05-20T02:03:28.786Z,415.12
2019-05-20T02:04:14.931Z,414.72
2019-05-20T02:05:13.924Z,415.19
2019-05-20T02:06:13.913Z,415.28
2019-05-20T02:07:13.915Z,415.16
2019-05-20T02:08:13.882Z,414.99
2019-05-20T02:09:13.869Z,414.99
2019-05-20T02:10:13.858Z,414.70
2019-05-20T02:11:13.847Z,414.75
2019-05-20T02:12:13.833Z,415.09
2019-05-20T02:13:13.838Z,415.10
2019-05-20T02:14:13.811Z,414.99
2019-05-20T02:15:13.797Z,415.06
2019-05-20T02:16:13.793Z,415.09
2019-05-20T02:17:13.834Z,414.86
2019-05-20T02:18:13.767Z,414.62
2019-05-20T02:19:13.749Z,414.85
2019-05-20T02:20:13.745Z,414.72
2019-05-20T02:21:13.741Z,414.70
2019-05-20T02:22:13.759Z,414.81
2019-05-20T02:23:13.719Z,414.91
2019-05-20T02:24:13.704Z,414.65
2019-05-20T02:25:13.722Z,414.54
2019-05-20T02:26:13.675Z,414.78
2019-05-20T02:27:13.666Z,414.91
2019-05-20T02:28:13.664Z,414.86
2019-05-20T02:29:13.641Z,415.38
2019-05-20T02:30:13.638Z,414.84
2019-05-20T02:31:13.622Z,415.09
2019-05-20T02:32:13.616Z,414.77
2019-05-20T02:33:13.601Z,415.04
2019-05-20T02:34:13.605Z,415.00
2019-05-20T02:35:13.621Z,414.70
2019-05-20T02:36:13.573Z,414.85
2019-05-20T02:37:13.557Z,415.22
2019-05-20T02:38:13.541Z,414.54
2019-05-20T02:39:13.537Z,414.79
2019-05-20T02:40:13.525Z,414.85
2019-05-20T02:41:13.511Z,415.46
2019-05-20T02:42:13.514Z,415.07
2019-05-20T02:43:13.491Z,414.91
2019-05-20T02:44:13.477Z,415.19
2019-05-20T02:45:13.476Z,414.92
2019-05-20T02:46:13.462Z,414.74
2019-05-20T02:47:13.442Z,414.64
2019-05-20T02:48:13.433Z,415.14
2019-05-20T02:49:13.420Z,414.79
2019-05-20T02:50:13.451Z,414.74
2019-05-20T02:51:13.411Z,414.82
2019-05-20T02:52:13.467Z,414.75
2019-05-20T02:53:13.380Z,414.80
2019-05-20T02:54:13.365Z,415.20
2019-05-20T02:55:13.352Z,414.99
2019-05-20T02:56:13.346Z,414.39
2019-05-20T02:57:13.329Z,415.02
2019-05-20T02:58:13.324Z,414.77
2019-05-20T02:59:13.309Z,415.33
2019-05-20T03:00:13.296Z,414.44
2019-05-20T03:01:13.287Z,414.50
2019-05-20T03:02:13.278Z,415.07
2019-05-20T03:03:13.263Z,414.99
2019-05-20T03:04:13.321Z,414.81
2019-05-20T03:05:13.239Z,415.03
2019-05-20T03:06:13.235Z,414.43
2019-05-20T03:07:13.220Z,415.12
2019-05-20T03:08:13.219Z,414.99
2019-05-20T03:09:13.218Z,415.02
2019-05-20T03:10:13.194Z,415.27
2019-05-20T03:11:13.191Z,415.17
2019-05-20T03:12:13.168Z,414.38
2019-05-20T03:13:13.177Z,415.27
2019-05-20T03:14:13.161Z,414.85
2019-05-20T03:15:13.131Z,414.86
2019-05-20T03:16:15.616Z,414.83
2019-05-20T03:17:13.110Z,414.92
2019-05-20T03:18:13.095Z,414.66
2019-05-20T03:19:13.107Z,415.18
2019-05-20T03:20:13.225Z,414.71
2019-05-20T03:21:13.057Z,414.73
2019-05-20T03:22:13.070Z,415.04
2019-05-20T03:23:13.040Z,414.99
2019-05-20T03:24:13.041Z,415.09
2019-05-20T03:25:13.014Z,414.90
2019-05-20T03:26:13.008Z,415.25
2019-05-20T03:27:12.989Z,415.29
2019-05-20T03:28:13.072Z,414.62
2019-05-20T03:29:13.006Z,414.91
2019-05-20T03:30:12.975Z,415.00
2019-05-20T03:31:12.963Z,415.22
2019-05-20T03:32:12.948Z,415.12
2019-05-20T03:33:13.004Z,415.05
2019-05-20T03:34:41.603Z,415.05
2019-05-20T03:35:13.917Z,415.57
2019-05-20T03:36:12.909Z,415.34
2019-05-20T03:37:12.885Z,415.47
2019-05-20T03:38:12.870Z,415.53
2019-05-20T03:39:12.859Z,415.23
2019-05-20T03:40:12.854Z,415.67
2019-05-20T03:41:13.791Z,415.43
2019-05-20T03:42:12.826Z,415.73
2019-05-20T03:43:12.811Z,415.86
2019-05-20T03:44:12.805Z,415.09
2019-05-20T03:45:12.805Z,415.49
2019-05-20T03:46:12.790Z,415.60
2019-05-20T03:47:12.773Z,415.00
2019-05-20T03:48:12.790Z,415.98
2019-05-20T03:49:12.771Z,415.58
2019-05-20T03:50:12.747Z,415.39
2019-05-20T03:51:12.729Z,415.77
2019-05-20T03:52:12.714Z,415.75
2019-05-20T03:53:12.699Z,415.89
2019-05-20T03:54:12.693Z,415.90
2019-05-20T03:55:12.763Z,416.16
2019-05-20T03:56:12.709Z,415.68
2019-05-20T03:57:12.709Z,415.71
2019-05-20T03:58:13.751Z,415.85
2019-05-20T03:59:12.658Z,415.81
2019-05-20T04:00:12.685Z,416.11
2019-05-20T04:01:12.625Z,416.12
2019-05-20T04:02:12.603Z,415.96
2019-05-20T04:03:12.707Z,415.42
2019-05-20T04:04:12.721Z,415.57
2019-05-20T04:05:12.598Z,415.43
2019-05-20T04:06:12.689Z,415.11
2019-05-20T04:07:13.313Z,415.25
2019-05-20T04:08:12.533Z,415.34
2019-05-20T04:09:12.715Z,415.14
2019-05-20T04:10:12.544Z,415.82
2019-05-20T04:11:12.519Z,415.19
2019-05-20T04:12:12.485Z,414.96
2019-05-20T04:13:12.477Z,415.19
2019-05-20T04:14:12.466Z,415.13
2019-05-20T04:15:12.519Z,415.02
2019-05-20T04:16:12.442Z,414.92
2019-05-20T04:17:12.486Z,415.10
2019-05-20T04:18:12.416Z,414.98
2019-05-20T04:19:12.405Z,415.03
2019-05-20T04:20:12.395Z,415.14
2019-05-20T04:21:12.410Z,415.25
2019-05-20T04:22:12.382Z,415.12
2019-05-20T04:23:12.361Z,415.70
2019-05-20T04:24:12.359Z,415.23
2019-05-20T04:25:12.344Z,415.52
2019-05-20T04:26:12.330Z,415.27
2019-05-20T04:27:12.321Z,415.49
2019-05-20T04:28:12.301Z,415.11
2019-05-20T04:29:12.295Z,415.13
2019-05-20T04:30:12.296Z,415.42
2019-05-20T04:31:12.277Z,415.55
2019-05-20T04:32:12.290Z,415.62
2019-05-20T04:33:12.264Z,415.41
2019-05-20T04:34:12.248Z,415.59
2019-05-20T04:35:22.159Z,415.92
2019-05-20T04:36:13.218Z,415.16
2019-05-20T04:37:12.222Z,415.76
2019-05-20T04:38:12.289Z,415.44
2019-05-20T04:39:12.180Z,415.48
2019-05-20T04:40:12.179Z,415.45
2019-05-20T04:41:12.156Z,415.18
2019-05-20T04:42:12.150Z,415.28
2019-05-20T04:43:12.248Z,415.72
2019-05-20T04:44:12.122Z,416.00
2019-05-20T04:45:12.117Z,415.83
2019-05-20T04:46:12.104Z,415.42
2019-05-20T04:47:12.094Z,415.83
2019-05-20T04:48:13.919Z,416.12
2019-05-20T04:49:12.069Z,416.15
2019-05-20T04:50:12.060Z,416.20
2019-05-20T04:51:12.050Z,416.61
2019-05-20T04:52:12.198Z,415.92
2019-05-20T04:53:12.037Z,415.54
2019-05-20T04:54:12.025Z,415.47
2019-05-20T04:55:11.998Z,415.32
2019-05-20T04:56:11.989Z,415.48
2019-05-20T04:57:11.988Z,415.35
2019-05-20T04:58:11.972Z,415.29
2019-05-20T04:59:11.955Z,415.09
2019-05-20T05:00:11.941Z,415.23
2019-05-20T05:01:11.936Z,414.95
2019-05-20T05:02:11.980Z,414.81
2019-05-20T05:03:12.044Z,414.47
2019-05-20T05:04:12.044Z,414.95
2019-05-20T05:05:12.079Z,414.27
2019-05-20T05:06:11.935Z,414.13
2019-05-20T05:07:12.087Z,414.33
2019-05-20T05:08:11.875Z,414.05
2019-05-20T05:09:15.482Z,413.68
2019-05-20T05:10:11.885Z,414.00
2019-05-20T05:11:11.894Z,413.88
2019-05-20T05:12:11.840Z,413.67
2019-05-20T05:13:12.723Z,413.47
2019-05-20T05:14:11.805Z,413.45
2019-05-20T05:15:11.789Z,412.97
2019-05-20T05:16:11.787Z,413.70
2019-05-20T05:17:11.844Z,413.31
2019-05-20T05:18:11.810Z,413.53
2019-05-20T05:19:11.809Z,413.47
2019-05-20T05:20:18.105Z,413.60
2019-05-20T05:21:12.705Z,412.99
2019-05-20T05:22:11.695Z,413.49
2019-05-20T05:23:11.685Z,413.76
2019-05-20T05:24:11.677Z,413.33
2019-05-20T05:25:11.689Z,413.90
2019-05-20T05:26:11.652Z,414.15
2019-05-20T05:27:11.660Z,414.78
2019-05-20T05:28:11.666Z,414.58
2019-05-20T05:29:11.630Z,415.32
2019-05-20T05:30:11.611Z,415.34
2019-05-20T05:31:11.598Z,414.83
2019-05-20T05:32:11.584Z,414.94
2019-05-20T05:33:11.585Z,414.99
2019-05-20T05:34:11.562Z,414.83
2019-05-20T05:35:11.566Z,414.37
2019-05-20T05:36:11.537Z,414.59
2019-05-20T05:37:11.623Z,414.68
2019-05-20T05:38:11.544Z,414.39
2019-05-20T05:39:11.679Z,413.99
2019-05-20T05:40:11.492Z,413.94
2019-05-20T05:41:11.544Z,414.13
2019-05-20T05:42:11.675Z,413.60
2019-05-20T05:43:11.479Z,413.26
2019-05-20T05:44:11.458Z,413.71
2019-05-20T05:45:11.504Z,413.14
2019-05-20T05:46:11.431Z,413.15
2019-05-20T05:47:11.419Z,412.80
2019-05-20T05:48:11.427Z,413.02
2019-05-20T05:49:11.716Z,412.96
2019-05-20T05:50:11.617Z,413.05
2019-05-20T05:51:11.374Z,412.54
2019-05-20T05:52:11.563Z,412.53
2019-05-20T05:53:11.369Z,412.62
2019-05-20T05:54:11.337Z,412.53
2019-05-20T05:55:11.344Z,412.62
2019-05-20T05:56:11.338Z,412.67
2019-05-20T05:57:11.305Z,412.45
2019-05-20T05:58:11.291Z,412.85
2019-05-20T05:59:11.322Z,413.04
2019-05-20T06:00:11.279Z,413.16
2019-05-20T06:01:11.270Z,412.92
2019-05-20T06:02:11.282Z,413.00
2019-05-20T06:03:11.246Z,412.95
2019-05-20T06:04:11.268Z,413.07
2019-05-20T06:05:11.242Z,413.13
2019-05-20T06:06:13.317Z,412.51
2019-05-20T06:07:11.228Z,413.12
2019-05-20T06:08:11.179Z,413.11
2019-05-20T06:09:11.184Z,412.91
2019-05-20T06:10:11.173Z,413.06
2019-05-20T06:11:11.153Z,413.09
2019-05-20T06:12:11.150Z,413.54
2019-05-20T06:13:11.125Z,413.25
2019-05-20T06:14:11.112Z,413.21
2019-05-20T06:15:11.128Z,413.55
2019-05-20T06:16:11.095Z,412.99
2019-05-20T06:17:11.092Z,413.80
2019-05-20T06:18:11.120Z,413.55
2019-05-20T06:19:11.054Z,413.71
2019-05-20T06:20:11.047Z,413.11
2019-05-20T06:21:11.042Z,413.02
2019-05-20T06:22:14.387Z,413.80
2019-05-20T06:23:11.013Z,413.29
2019-05-20T06:24:11.017Z,413.55
2019-05-20T06:25:11.585Z,413.82
2019-05-20T06:26:11.011Z,413.54
2019-05-20T06:27:10.967Z,413.77
2019-05-20T06:28:10.958Z,413.90
2019-05-20T06:29:10.957Z,413.60
2019-05-20T06:30:10.937Z,413.98
2019-05-20T06:31:11.040Z,413.73
2019-05-20T06:32:10.912Z,413.38
2019-05-20T06:33:10.897Z,413.59
2019-05-20T06:34:10.893Z,414.12
2019-05-20T06:35:10.909Z,413.74
2019-05-20T06:36:25.739Z,413.95
2019-05-20T06:37:11.855Z,413.37
2019-05-20T06:38:10.852Z,413.68
2019-05-20T06:39:10.856Z,413.59
2019-05-20T06:40:10.838Z,413.36
2019-05-20T06:41:10.846Z,413.98
2019-05-20T06:42:10.793Z,413.18
2019-05-20T06:43:10.786Z,413.78
2019-05-20T06:44:10.779Z,413.34
2019-05-20T06:45:10.763Z,413.83
2019-05-20T06:46:10.776Z,413.16
2019-05-20T06:47:10.751Z,412.97
2019-05-20T06:48:10.729Z,413.18
2019-05-20T06:49:10.715Z,413.30
2019-05-20T06:50:10.735Z,413.27
2019-05-20T06:51:10.706Z,413.50
2019-05-20T06:52:10.701Z,413.26
2019-05-20T06:53:10.674Z,413.43
2019-05-20T06:54:10.663Z,412.65
2019-05-20T06:55:10.661Z,413.65
2019-05-20T06:56:10.644Z,413.47
2019-05-20T06:57:10.904Z,413.12
2019-05-20T06:58:10.620Z,413.34
2019-05-20T06:59:10.612Z,413.55
2019-05-20T07:00:10.600Z,413.70
2019-05-20T07:01:10.581Z,413.32
2019-05-20T07:02:10.695Z,413.66
2019-05-20T07:03:10.690Z,413.78
2019-05-20T07:04:10.566Z,413.37
2019-05-20T07:05:10.575Z,413.40
2019-05-20T07:06:10.548Z,413.79
2019-05-20T07:07:20.367Z,413.57
2019-05-20T07:08:11.535Z,413.78
2019-05-20T07:09:10.518Z,413.54
2019-05-20T07:10:10.503Z,413.76
2019-05-20T07:11:10.475Z,413.77
2019-05-20T07:12:10.460Z,413.97
2019-05-20T07:13:10.450Z,413.44
2019-05-20T07:14:10.461Z,413.41
2019-05-20T07:15:10.426Z,414.05
2019-05-20T07:16:10.415Z,413.98
2019-05-20T07:17:10.398Z,414.12
2019-05-20T07:18:10.390Z,414.46
2019-05-20T07:19:10.376Z,414.26
2019-05-20T07:20:10.373Z,414.12
2019-05-20T07:21:10.363Z,413.75
2019-05-20T07:22:10.346Z,414.06
2019-05-20T07:23:10.334Z,414.24
2019-05-20T07:24:10.323Z,414.19
2019-05-20T07:25:10.390Z,413.87
2019-05-20T07:26:10.301Z,414.54
2019-05-20T07:27:10.296Z,414.34
2019-05-20T07:28:10.285Z,414.17
2019-05-20T07:29:10.268Z,414.52
2019-05-20T07:30:14.530Z,414.00
2019-05-20T07:31:11.252Z,414.25
2019-05-20T07:32:10.231Z,414.55
2019-05-20T07:33:10.237Z,414.20
2019-05-20T07:34:10.211Z,414.26
2019-05-20T07:35:10.202Z,414.12
2019-05-20T07:36:10.317Z,414.39
2019-05-20T07:37:10.176Z,414.40
2019-05-20T07:38:10.166Z,414.10
2019-05-20T07:39:10.152Z,413.75
2019-05-20T07:40:10.152Z,413.59
2019-05-20T07:41:10.141Z,414.07
2019-05-20T07:42:10.166Z,414.08
2019-05-20T07:43:10.112Z,413.95
2019-05-20T07:44:10.100Z,413.88
2019-05-20T07:45:10.107Z,413.83
2019-05-20T07:46:10.088Z,414.18
2019-05-20T07:47:11.172Z,413.95
2019-05-20T07:48:10.059Z,414.02
2019-05-20T07:49:10.063Z,413.96
2019-05-20T07:50:10.039Z,413.97
2019-05-20T07:51:10.026Z,413.97
2019-05-20T07:52:10.090Z,414.27
2019-05-20T07:53:09.999Z,413.87
2019-05-20T07:54:10.011Z,414.16
2019-05-20T07:55:09.976Z,413.94
2019-05-20T07:56:09.966Z,413.77
2019-05-20T07:57:09.952Z,413.88
2019-05-20T07:58:09.941Z,413.76
2019-05-20T07:59:09.933Z,414.12
2019-05-20T08:00:09.918Z,413.49
2019-05-20T08:01:09.909Z,413.54
2019-05-20T08:02:09.904Z,414.19
2019-05-20T08:03:09.894Z,413.65
2019-05-20T08:04:09.879Z,413.96
2019-05-20T08:05:10.129Z,413.85
2019-05-20T08:06:09.845Z,413.78
2019-05-20T08:07:26.661Z,413.80
2019-05-20T08:08:10.826Z,414.01
2019-05-20T08:09:09.819Z,413.87
2019-05-20T08:10:09.831Z,413.95
2019-05-20T08:11:09.795Z,413.85
2019-05-20T08:12:09.801Z,413.92
2019-05-20T08:13:09.776Z,413.53
2019-05-20T08:14:09.761Z,413.40
2019-05-20T08:15:09.754Z,414.14
2019-05-20T08:16:09.737Z,414.24
2019-05-20T08:17:09.727Z,414.24
2019-05-20T08:18:09.722Z,414.15
2019-05-20T08:19:09.770Z,413.55
2019-05-20T08:20:09.915Z,413.83
2019-05-20T08:21:09.693Z,413.82
2019-05-20T08:22:09.683Z,413.52
2019-05-20T08:23:09.655Z,413.84
2019-05-20T08:24:09.646Z,414.00
2019-05-20T08:25:09.644Z,413.33
2019-05-20T08:26:09.635Z,413.47
2019-05-20T08:27:09.616Z,413.86
2019-05-20T08:28:09.601Z,413.40
2019-05-20T08:29:09.615Z,413.68
2019-05-20T08:30:09.579Z,413.71
2019-05-20T08:31:09.573Z,413.75
2019-05-20T08:32:09.578Z,414.00
2019-05-20T08:33:09.547Z,413.62
2019-05-20T08:34:09.641Z,413.77
2019-05-20T08:35:09.537Z,413.75
2019-05-20T08:36:09.508Z,414.05
2019-05-20T08:37:09.830Z,413.80
2019-05-20T08:38:09.639Z,413.73
2019-05-20T08:39:09.481Z,413.99
2019-05-20T08:40:09.469Z,413.73
2019-05-20T08:41:09.496Z,413.58
2019-05-20T08:42:09.451Z,413.22
2019-05-20T08:43:09.672Z,413.33
2019-05-20T08:44:09.443Z,413.33
2019-05-20T08:45:09.521Z,413.13
2019-05-20T08:46:09.432Z,413.28
2019-05-20T08:47:09.478Z,413.30
2019-05-20T08:48:09.424Z,413.49
2019-05-20T08:49:11.142Z,413.30
2019-05-20T08:50:14.283Z,413.22
2019-05-20T08:51:10.346Z,413.65
2019-05-20T08:52:09.373Z,413.71
2019-05-20T08:53:09.423Z,413.27
2019-05-20T08:54:09.333Z,413.29
2019-05-20T08:55:09.296Z,413.67
2019-05-20T08:56:09.294Z,413.69
2019-05-20T08:57:09.277Z,413.78
2019-05-20T08:58:09.263Z,412.85
2019-05-20T08:59:09.258Z,413.63
2019-05-20T09:00:09.245Z,413.19
2019-05-20T09:01:11.340Z,413.18
2019-05-20T09:02:09.217Z,413.33
2019-05-20T09:03:09.212Z,413.58
2019-05-20T09:04:09.203Z,413.26
2019-05-20T09:05:09.207Z,413.20
2019-05-20T09:06:09.171Z,413.22
2019-05-20T09:07:09.183Z,413.27
2019-05-20T09:08:09.181Z,413.30
2019-05-20T09:09:12.195Z,413.03
2019-05-20T09:10:09.143Z,413.13
2019-05-20T09:11:09.126Z,412.96
2019-05-20T09:12:09.110Z,413.60
2019-05-20T09:13:09.095Z,413.33
2019-05-20T09:14:09.088Z,413.12
2019-05-20T09:15:09.077Z,412.94
2019-05-20T09:16:09.083Z,413.60
2019-05-20T09:17:09.087Z,413.15
2019-05-20T09:18:09.047Z,413.69
2019-05-20T09:19:09.039Z,413.50
2019-05-20T09:20:09.033Z,413.41
2019-05-20T09:21:09.060Z,413.18
2019-05-20T09:22:09.006Z,413.60
2019-05-20T09:23:09.028Z,413.48
2019-05-20T09:24:08.994Z,413.42
2019-05-20T09:25:09.139Z,413.35
2019-05-20T09:26:08.970Z,414.04
2019-05-20T09:27:08.946Z,413.21
2019-05-20T09:28:08.949Z,413.29
2019-05-20T09:29:11.451Z,413.56
2019-05-20T09:30:08.906Z,413.72
2019-05-20T09:31:08.897Z,413.79
2019-05-20T09:32:08.888Z,413.85
2019-05-20T09:33:08.892Z,413.31
2019-05-20T09:34:08.884Z,412.93
2019-05-20T09:35:08.874Z,413.62
2019-05-20T09:36:08.912Z,412.98
2019-05-20T09:37:08.870Z,413.22
2019-05-20T09:38:19.451Z,413.02
2019-05-20T09:39:09.862Z,413.57
2019-05-20T09:40:08.803Z,412.76
2019-05-20T09:41:08.787Z,412.95
2019-05-20T09:42:08.777Z,413.23
2019-05-20T09:43:08.787Z,413.36
2019-05-20T09:44:08.791Z,412.96
2019-05-20T09:45:08.765Z,412.78
2019-05-20T09:46:08.762Z,412.84
2019-05-20T09:47:08.723Z,412.62
2019-05-20T09:48:08.764Z,412.85
2019-05-20T09:49:08.698Z,412.65
2019-05-20T09:50:08.693Z,412.65
2019-05-20T09:51:08.697Z,412.65
2019-05-20T09:52:08.664Z,412.67
2019-05-20T09:53:08.656Z,412.65
2019-05-20T09:54:08.648Z,412.54
2019-05-20T09:55:08.631Z,412.58
2019-05-20T09:56:08.630Z,412.35
2019-05-20T09:57:08.610Z,412.37
2019-05-20T09:58:08.614Z,412.15
2019-05-20T09:59:08.585Z,412.48
2019-05-20T10:00:08.574Z,412.52
2019-05-20T10:01:08.594Z,412.84
2019-05-20T10:02:08.569Z,411.94
2019-05-20T10:03:08.545Z,412.00
2019-05-20T10:04:08.529Z,411.84
2019-05-20T10:05:08.575Z,411.87
2019-05-20T10:06:08.648Z,412.55
2019-05-20T10:07:08.505Z,412.30
2019-05-20T10:08:08.503Z,411.94
2019-05-20T10:09:08.480Z,412.62
2019-05-20T10:10:08.468Z,412.16
2019-05-20T10:11:08.471Z,412.26
2019-05-20T10:12:08.444Z,411.91
2019-05-20T10:13:09.050Z,412.17
2019-05-20T10:14:08.425Z,412.42
2019-05-20T10:15:08.410Z,411.76
2019-05-20T10:16:08.401Z,411.88
2019-05-20T10:17:08.382Z,412.30
2019-05-20T10:18:08.378Z,412.11
2019-05-20T10:19:08.385Z,412.42
2019-05-20T10:20:08.350Z,412.10
2019-05-20T10:21:08.360Z,412.10
2019-05-20T10:22:08.328Z,411.52
2019-05-20T10:23:08.325Z,412.02
2019-05-20T10:24:08.313Z,411.95
2019-05-20T10:25:08.314Z,411.97
2019-05-20T10:26:08.298Z,411.68
2019-05-20T10:27:08.272Z,412.27
2019-05-20T10:28:08.275Z,411.99
2019-05-20T10:29:08.253Z,411.49
2019-05-20T10:30:08.248Z,411.56
2019-05-20T10:31:08.248Z,411.77
2019-05-20T10:32:08.237Z,411.97
2019-05-20T10:33:10.325Z,411.79
2019-05-20T10:34:08.403Z,412.08
2019-05-20T10:35:08.189Z,412.03
2019-05-20T10:36:08.190Z,411.93
2019-05-20T10:37:08.177Z,411.78
2019-05-20T10:38:08.159Z,411.68
2019-05-20T10:39:08.735Z,412.23
2019-05-20T10:40:08.129Z,411.35
2019-05-20T10:41:08.152Z,412.22
2019-05-20T10:42:08.121Z,411.72
2019-05-20T10:43:08.094Z,411.64
2019-05-20T10:44:08.083Z,411.74
2019-05-20T10:45:08.071Z,411.87
2019-05-20T10:46:08.067Z,411.57
2019-05-20T10:47:08.055Z,412.04
2019-05-20T10:48:09.161Z,411.62
2019-05-20T10:49:08.025Z,411.82
2019-05-20T10:50:08.015Z,411.55
2019-05-20T10:51:10.341Z,411.19
2019-05-20T10:52:08.077Z,411.33
2019-05-20T10:53:07.999Z,411.55
2019-05-20T10:54:07.988Z,411.34
2019-05-20T10:55:07.963Z,411.40
2019-05-20T10:56:07.949Z,411.57
2019-05-20T10:57:07.940Z,411.32
2019-05-20T10:58:07.934Z,411.30
2019-05-20T10:59:11.954Z,411.57
2019-05-20T11:00:07.990Z,411.35
2019-05-20T11:01:07.903Z,411.87
2019-05-20T11:02:07.879Z,411.60
2019-05-20T11:03:07.874Z,412.20
2019-05-20T11:04:07.884Z,411.70
2019-05-20T11:05:07.859Z,411.90
2019-05-20T11:06:07.848Z,411.69
2019-05-20T11:07:07.827Z,411.68
2019-05-20T11:08:07.819Z,411.97
2019-05-20T11:09:14.058Z,411.97
2019-05-20T11:10:08.781Z,412.18
2019-05-20T11:11:07.785Z,412.17
2019-05-20T11:12:07.783Z,411.82
2019-05-20T11:13:07.751Z,411.89
2019-05-20T11:14:07.746Z,411.88
2019-05-20T11:15:07.759Z,411.58
2019-05-20T11:16:07.725Z,411.67
2019-05-20T11:17:07.739Z,411.35
2019-05-20T11:18:07.699Z,411.61
2019-05-20T11:19:07.784Z,411.51
2019-05-20T11:20:07.683Z,411.35
2019-05-20T11:21:07.699Z,411.45
2019-05-20T11:22:07.662Z,411.20
2019-05-20T11:23:07.647Z,410.77
2019-05-20T11:24:07.671Z,411.00
2019-05-20T11:25:07.625Z,411.13
2019-05-20T11:26:07.636Z,410.48
2019-05-20T11:27:07.646Z,410.66
2019-05-20T11:28:11.709Z,410.70
2019-05-20T11:29:07.590Z,410.58
2019-05-20T11:30:07.570Z,410.84
2019-05-20T11:31:07.595Z,410.75
2019-05-20T11:32:07.552Z,410.98
2019-05-20T11:33:07.593Z,410.75
2019-05-20T11:34:07.524Z,411.12
2019-05-20T11:35:07.546Z,410.79
2019-05-20T11:36:07.500Z,410.56
2019-05-20T11:37:07.523Z,411.19
2019-05-20T11:38:07.480Z,411.23
2019-05-20T11:39:07.543Z,411.05
2019-05-20T11:40:07.579Z,411.12
2019-05-20T11:41:07.437Z,411.46
2019-05-20T11:42:07.443Z,411.53
2019-05-20T11:43:07.436Z,411.56
2019-05-20T11:44:07.408Z,411.06
2019-05-20T11:45:07.406Z,411.28
2019-05-20T11:46:07.389Z,411.08
2019-05-20T11:47:07.376Z,411.36
2019-05-20T11:48:07.391Z,411.51
2019-05-20T11:49:07.348Z,411.60
2019-05-20T11:50:07.343Z,411.14
2019-05-20T11:51:07.350Z,411.54
2019-05-20T11:52:07.318Z,411.92
2019-05-20T11:53:07.332Z,411.66
2019-05-20T11:54:07.379Z,411.51
2019-05-20T11:55:07.282Z,411.35
2019-05-20T11:56:07.282Z,411.46
2019-05-20T11:57:07.289Z,411.20
2019-05-20T11:58:15.638Z,411.67
2019-05-20T11:59:08.238Z,411.75
2019-05-20T12:00:07.251Z,411.36
2019-05-20T12:01:07.215Z,411.76
2019-05-20T12:02:07.204Z,411.47
2019-05-20T12:03:07.200Z,411.63
2019-05-20T12:04:07.200Z,412.11
2019-05-20T12:05:07.187Z,411.73
2019-05-20T12:06:07.362Z,411.41
2019-05-20T12:07:08.684Z,411.61
2019-05-20T12:08:07.143Z,411.59
2019-05-20T12:09:07.130Z,411.15
2019-05-20T12:10:07.132Z,411.21
2019-05-20T12:11:07.123Z,411.31
2019-05-20T12:12:07.099Z,411.40
2019-05-20T12:13:07.083Z,411.34
2019-05-20T12:14:07.073Z,411.19
2019-05-20T12:15:08.497Z,411.45
2019-05-20T12:16:07.070Z,411.70
2019-05-20T12:17:07.036Z,411.61
2019-05-20T12:18:07.029Z,411.52
2019-05-20T12:19:07.020Z,411.36
2019-05-20T12:20:07.928Z,411.32
2019-05-20T12:21:07.011Z,411.27
2019-05-20T12:22:07.940Z,411.22
2019-05-20T12:23:07.001Z,411.47
2019-05-20T12:24:07.011Z,411.19
2019-05-20T12:25:06.952Z,411.97
2019-05-20T12:26:07.105Z,411.36
2019-05-20T12:27:06.930Z,411.83
2019-05-20T12:28:06.953Z,411.36